Battle Point — NMBY — position and weather

sailwx.info

Track history (hours):
 
Tides and Currents Weather Stations Pressure Air Temp Water Temp Dewpoint Dewpoint Depression Visibility Wind Speed Wind Dir Waves Ship Positions

Battle Point

Last reported at 2016-Mar-31 18:33 UTC. Time now 2016-May-01 08:04 UTC.
Position N 49°17' W 123°59'.
Warning: this ship's position is 30 days out of date.

Length 57 m; draft 3.2 m.

MMSI: 369970254.

Date/timePositionNaut miles runAvg speedWind from/ knotsBaromVisibWave heightAir tempDewpointWater temp
2016-Mar-31 18:33N 49°17' W 123°59'2 2.4
2016-Mar-31 17:33N 49°19' W 123°56'  
2016-Mar-29 03:33N 49°16' W 124°09'1010.0
2016-Mar-29 02:33N 49°15' W 123°53'10 9.6
2016-Mar-29 01:33N 49°11' W 123°40'9 9.5
2016-Mar-29 00:33N 49°06' W 123°27'10 9.9
2016-Mar-28 23:33N 49°00' W 123°15'10 9.5
2016-Mar-28 22:33N 48°54' W 123°04'9 9.5
2016-Mar-28 21:33N 48°48' W 122°53'9 9.1
2016-Mar-28 20:33N 48°42' W 122°43'8 7.9
2016-Mar-28 19:33N 48°34' W 122°45'8 7.8
2016-Mar-28 18:33N 48°26' W 122°44'10 9.4
2016-Mar-28 17:32N 48°16' W 122°47'1210.5
2016-Mar-28 16:21N 48°05' W 122°39'810.5
2016-Mar-28 15:33N 47°57' W 122°38'8 8.6
2016-Mar-28 14:33N 47°49' W 122°41'5 5.2
2016-Mar-28 13:33N 47°44' W 122°44'  
Track history (hours):
 
Tides and Currents Weather Stations Pressure Air Temp Water Temp Dewpoint Dewpoint Depression Visibility Wind Speed Wind Dir Waves Ship Positions

Battle Point

Last reported at 2016-Mar-31 18:33 UTC. Time now 2016-May-01 08:04 UTC.
Position N 49°17' W 123°59'.
Warning: this ship's position is 30 days out of date.

Length 57 m; draft 3.2 m.

MMSI: 369970254.

Date/timePositionNaut miles runAvg speedWind from/ knotsBaromVisibWave heightAir tempDewpointWater temp
2016-Mar-31 18:33N 49°17' W 123°59'2 2.4
2016-Mar-31 17:33N 49°19' W 123°56'  
2016-Mar-29 03:33N 49°16' W 124°09'1010.0
2016-Mar-29 02:33N 49°15' W 123°53'10 9.6
2016-Mar-29 01:33N 49°11' W 123°40'9 9.5
2016-Mar-29 00:33N 49°06' W 123°27'10 9.9
2016-Mar-28 23:33N 49°00' W 123°15'10 9.5
2016-Mar-28 22:33N 48°54' W 123°04'9 9.5
2016-Mar-28 21:33N 48°48' W 122°53'9 9.1
2016-Mar-28 20:33N 48°42' W 122°43'8 7.9
2016-Mar-28 19:33N 48°34' W 122°45'8 7.8
2016-Mar-28 18:33N 48°26' W 122°44'10 9.4
2016-Mar-28 17:32N 48°16' W 122°47'1210.5
2016-Mar-28 16:21N 48°05' W 122°39'810.5
2016-Mar-28 15:33N 47°57' W 122°38'8 8.6
2016-Mar-28 14:33N 47°49' W 122°41'5 5.2
2016-Mar-28 13:33N 47°44' W 122°44'  

Dump ship's entire track history